sensor_id;sensor_type;location;lat;lon;timestamp;temperature;humidity
4435;DHT22;46552;52.150;8.428;2024-03-23T00:54:32;8.90;99.90
4435;DHT22;46552;52.150;8.428;2024-03-23T00:56:59;8.90;99.90
4435;DHT22;46552;52.150;8.428;2024-03-23T00:59:26;8.90;99.90
4435;DHT22;46552;52.150;8.428;2024-03-23T01:01:54;8.80;99.90
4435;DHT22;46552;52.150;8.428;2024-03-23T01:04:20;8.80;99.90
4435;DHT22;46552;52.150;8.428;2024-03-23T01:06:48;8.80;99.90
4435;DHT22;46552;52.150;8.428;2024-03-23T01:09:14;8.70;99.90
4435;DHT22;46552;52.150;8.428;2024-03-23T01:11:42;8.70;99.90
4435;DHT22;46552;52.150;8.428;2024-03-23T01:14:09;8.80;99.90
4435;DHT22;46552;52.150;8.428;2024-03-23T01:16:37;8.80;99.90
4435;DHT22;46552;52.150;8.428;2024-03-23T01:19:04;8.70;99.90
4435;DHT22;46552;52.150;8.428;2024-03-23T01:21:32;8.70;99.90
4435;DHT22;46552;52.150;8.428;2024-03-23T01:23:58;8.70;99.90
4435;DHT22;46552;52.150;8.428;2024-03-23T01:26:25;8.70;99.90
4435;DHT22;46552;52.150;8.428;2024-03-23T01:28:54;8.60;99.90
4435;DHT22;46552;52.150;8.428;2024-03-23T01:31:21;8.60;99.90
4435;DHT22;46552;52.150;8.428;2024-03-23T01:33:47;8.60;99.90
4435;DHT22;46552;52.150;8.428;2024-03-23T01:36:15;8.60;99.90
4435;DHT22;46552;52.150;8.428;2024-03-23T01:38:41;8.60;99.90
4435;DHT22;46552;52.150;8.428;2024-03-23T01:41:09;8.60;99.90
4435;DHT22;46552;52.150;8.428;2024-03-23T01:43:35;8.60;99.90
4435;DHT22;46552;52.150;8.428;2024-03-23T01:46:05;8.60;99.90
4435;DHT22;46552;52.150;8.428;2024-03-23T01:48:31;8.50;99.90
4435;DHT22;46552;52.150;8.428;2024-03-23T01:50:58;8.50;99.90
4435;DHT22;46552;52.150;8.428;2024-03-23T01:53:25;8.50;99.90
4435;DHT22;46552;52.150;8.428;2024-03-23T01:55:52;8.40;99.90
4435;DHT22;46552;52.150;8.428;2024-03-23T01:58:18;8.40;99.90
4435;DHT22;46552;52.150;8.428;2024-03-23T02:00:45;8.30;99.90
4435;DHT22;46552;52.150;8.428;2024-03-23T02:03:24;8.40;99.90
4435;DHT22;46552;52.150;8.428;2024-03-23T02:05:51;8.30;99.90
4435;DHT22;46552;52.150;8.428;2024-03-23T02:08:20;8.30;99.90
4435;DHT22;46552;52.150;8.428;2024-03-23T02:10:48;8.20;99.90
4435;DHT22;46552;52.150;8.428;2024-03-23T02:13:14;8.20;99.90
4435;DHT22;46552;52.150;8.428;2024-03-23T02:15:42;8.20;99.90
4435;DHT22;46552;52.150;8.428;2024-03-23T02:18:09;8.10;99.90
4435;DHT22;46552;52.150;8.428;2024-03-23T02:20:38;8.30;99.90
4435;DHT22;46552;52.150;8.428;2024-03-23T02:23:10;8.20;99.90
4435;DHT22;46552;52.150;8.428;2024-03-23T02:25:39;8.30;99.90
4435;DHT22;46552;52.150;8.428;2024-03-23T02:28:05;8.30;99.90
4435;DHT22;46552;52.150;8.428;2024-03-23T02:30:33;8.30;99.90
4435;DHT22;46552;52.150;8.428;2024-03-23T02:32:59;8.30;99.90
4435;DHT22;46552;52.150;8.428;2024-03-23T02:35:26;8.30;99.90
4435;DHT22;46552;52.150;8.428;2024-03-23T02:37:52;8.30;99.90
4435;DHT22;46552;52.150;8.428;2024-03-23T02:40:23;8.30;99.90
4435;DHT22;46552;52.150;8.428;2024-03-23T02:42:50;8.30;99.90
4435;DHT22;46552;52.150;8.428;2024-03-23T02:45:17;8.30;99.90
4435;DHT22;46552;52.150;8.428;2024-03-23T02:47:43;8.30;99.90
4435;DHT22;46552;52.150;8.428;2024-03-23T02:50:11;8.20;99.90
4435;DHT22;46552;52.150;8.428;2024-03-23T02:52:38;8.20;99.90
4435;DHT22;46552;52.150;8.428;2024-03-23T02:55:05;8.20;99.90
4435;DHT22;46552;52.150;8.428;2024-03-23T02:57:33;8.20;99.90
4435;DHT22;46552;52.150;8.428;2024-03-23T03:00:00;8.20;99.90
4435;DHT22;46552;52.150;8.428;2024-03-23T03:02:28;8.20;99.90
4435;DHT22;46552;52.150;8.428;2024-03-23T03:04:55;8.10;99.90
4435;DHT22;46552;52.150;8.428;2024-03-23T03:07:22;8.10;99.90
4435;DHT22;46552;52.150;8.428;2024-03-23T03:09:49;8.10;99.90
4435;DHT22;46552;52.150;8.428;2024-03-23T03:12:16;8.20;99.90
4435;DHT22;46552;52.150;8.428;2024-03-23T03:14:45;8.20;99.90
4435;DHT22;46552;52.150;8.428;2024-03-23T03:17:12;8.20;99.90
4435;DHT22;46552;52.150;8.428;2024-03-23T03:19:40;8.10;99.90
4435;DHT22;46552;52.150;8.428;2024-03-23T03:22:06;8.10;99.90
4435;DHT22;46552;52.150;8.428;2024-03-23T03:24:34;8.10;99.90
4435;DHT22;46552;52.150;8.428;2024-03-23T03:27:00;8.10;99.90
4435;DHT22;46552;52.150;8.428;2024-03-23T03:29:29;8.00;99.90
4435;DHT22;46552;52.150;8.428;2024-03-23T03:32:04;8.00;99.90
4435;DHT22;46552;52.150;8.428;2024-03-23T03:34:31;8.00;99.90
4435;DHT22;46552;52.150;8.428;2024-03-23T03:36:58;8.00;99.90
4435;DHT22;46552;52.150;8.428;2024-03-23T03:39:26;8.00;99.90
4435;DHT22;46552;52.150;8.428;2024-03-23T03:41:53;8.00;99.90
4435;DHT22;46552;52.150;8.428;2024-03-23T03:44:21;8.00;99.90
4435;DHT22;46552;52.150;8.428;2024-03-23T03:46:47;8.00;99.90
4435;DHT22;46552;52.150;8.428;2024-03-23T03:49:16;8.00;99.90
4435;DHT22;46552;52.150;8.428;2024-03-23T03:51:42;8.00;99.90
4435;DHT22;46552;52.150;8.428;2024-03-23T03:54:09;8.00;99.90
4435;DHT22;46552;52.150;8.428;2024-03-23T03:56:35;8.00;99.90
4435;DHT22;46552;52.150;8.428;2024-03-23T03:59:03;7.90;99.90
4435;DHT22;46552;52.150;8.428;2024-03-23T04:01:31;7.90;99.90
4435;DHT22;46552;52.150;8.428;2024-03-23T04:03:59;7.90;99.90
4435;DHT22;46552;52.150;8.428;2024-03-23T04:06:27;7.90;99.90
4435;DHT22;46552;52.150;8.428;2024-03-23T04:08:54;7.90;99.90
4435;DHT22;46552;52.150;8.428;2024-03-23T04:11:21;7.90;99.90
4435;DHT22;46552;52.150;8.428;2024-03-23T04:13:49;7.90;99.90
4435;DHT22;46552;52.150;8.428;2024-03-23T04:16:26;7.80;99.90
4435;DHT22;46552;52.150;8.428;2024-03-23T04:18:53;7.80;99.90
4435;DHT22;46552;52.150;8.428;2024-03-23T04:21:20;7.80;99.90
4435;DHT22;46552;52.150;8.428;2024-03-23T04:23:49;7.80;99.90
4435;DHT22;46552;52.150;8.428;2024-03-23T04:26:16;7.80;99.90
4435;DHT22;46552;52.150;8.428;2024-03-23T04:28:43;7.70;99.90
4435;DHT22;46552;52.150;8.428;2024-03-23T04:31:10;7.70;99.90
4435;DHT22;46552;52.150;8.428;2024-03-23T04:33:37;7.70;99.90
4435;DHT22;46552;52.150;8.428;2024-03-23T04:36:04;7.70;99.90
4435;DHT22;46552;52.150;8.428;2024-03-23T04:38:33;7.70;99.90
4435;DHT22;46552;52.150;8.428;2024-03-23T04:41:02;7.70;99.90
4435;DHT22;46552;52.150;8.428;2024-03-23T04:43:30;7.60;99.90
4435;DHT22;46552;52.150;8.428;2024-03-23T04:45:57;7.60;99.90
4435;DHT22;46552;52.150;8.428;2024-03-23T04:48:24;7.60;99.90
4435;DHT22;46552;52.150;8.428;2024-03-23T04:50:55;7.60;99.90
4435;DHT22;46552;52.150;8.428;2024-03-23T04:53:23;7.70;99.90
4435;DHT22;46552;52.150;8.428;2024-03-23T04:55:54;7.70;99.90
4435;DHT22;46552;52.150;8.428;2024-03-23T04:58:22;7.70;99.90
4435;DHT22;46552;52.150;8.428;2024-03-23T05:00:54;7.70;99.90
4435;DHT22;46552;52.150;8.428;2024-03-23T05:03:22;7.60;99.90
4435;DHT22;46552;52.150;8.428;2024-03-23T05:05:49;7.60;99.90
4435;DHT22;46552;52.150;8.428;2024-03-23T05:08:17;7.60;99.90
4435;DHT22;46552;52.150;8.428;2024-03-23T05:10:43;7.60;99.90
4435;DHT22;46552;52.150;8.428;2024-03-23T05:13:11;7.60;99.90
4435;DHT22;46552;52.150;8.428;2024-03-23T05:15:39;7.60;99.90
4435;DHT22;46552;52.150;8.428;2024-03-23T05:18:07;7.60;99.90
4435;DHT22;46552;52.150;8.428;2024-03-23T05:20:33;7.60;99.90
4435;DHT22;46552;52.150;8.428;2024-03-23T05:23:00;7.60;99.90
4435;DHT22;46552;52.150;8.428;2024-03-23T05:25:27;7.60;99.90
4435;DHT22;46552;52.150;8.428;2024-03-23T05:27:55;7.60;99.90
4435;DHT22;46552;52.150;8.428;2024-03-23T05:30:21;7.60;99.90
4435;DHT22;46552;52.150;8.428;2024-03-23T05:32:51;7.60;99.90
4435;DHT22;46552;52.150;8.428;2024-03-23T05:35:18;7.60;99.90
4435;DHT22;46552;52.150;8.428;2024-03-23T05:37:45;7.60;99.90
4435;DHT22;46552;52.150;8.428;2024-03-23T05:40:12;7.50;99.90
4435;DHT22;46552;52.150;8.428;2024-03-23T05:42:41;7.50;99.90
4435;DHT22;46552;52.150;8.428;2024-03-23T05:45:08;7.50;99.90
4435;DHT22;46552;52.150;8.428;2024-03-23T05:47:36;7.50;99.90
4435;DHT22;46552;52.150;8.428;2024-03-23T05:50:06;7.50;99.90
4435;DHT22;46552;52.150;8.428;2024-03-23T05:52:35;7.50;99.90
4435;DHT22;46552;52.150;8.428;2024-03-23T05:55:02;7.50;99.90
4435;DHT22;46552;52.150;8.428;2024-03-23T05:57:30;7.50;99.90
4435;DHT22;46552;52.150;8.428;2024-03-23T05:59:57;7.50;99.90
4435;DHT22;46552;52.150;8.428;2024-03-23T06:02:24;7.50;99.90
4435;DHT22;46552;52.150;8.428;2024-03-23T06:04:50;7.50;99.90
4435;DHT22;46552;52.150;8.428;2024-03-23T06:07:20;7.50;99.90
4435;DHT22;46552;52.150;8.428;2024-03-23T06:09:47;7.50;99.90
4435;DHT22;46552;52.150;8.428;2024-03-23T06:12:16;7.50;99.90
4435;DHT22;46552;52.150;8.428;2024-03-23T06:14:43;7.50;99.90
4435;DHT22;46552;52.150;8.428;2024-03-23T06:17:11;7.50;99.90
4435;DHT22;46552;52.150;8.428;2024-03-23T06:19:37;7.60;99.90
4435;DHT22;46552;52.150;8.428;2024-03-23T06:22:05;7.60;99.90
4435;DHT22;46552;52.150;8.428;2024-03-23T06:24:34;7.60;99.90
4435;DHT22;46552;52.150;8.428;2024-03-23T06:27:01;7.70;99.90
4435;DHT22;46552;52.150;8.428;2024-03-23T06:29:27;7.70;99.90
4435;DHT22;46552;52.150;8.428;2024-03-23T06:31:55;7.70;99.90
4435;DHT22;46552;52.150;8.428;2024-03-23T06:34:21;7.70;99.90
4435;DHT22;46552;52.150;8.428;2024-03-23T06:36:50;7.70;99.90
4435;DHT22;46552;52.150;8.428;2024-03-23T06:39:16;7.80;99.90
4435;DHT22;46552;52.150;8.428;2024-03-23T06:41:52;7.80;99.90
4435;DHT22;46552;52.150;8.428;2024-03-23T06:44:19;7.80;99.90
4435;DHT22;46552;52.150;8.428;2024-03-23T06:46:47;7.80;99.90
4435;DHT22;46552;52.150;8.428;2024-03-23T06:49:15;7.80;99.90
4435;DHT22;46552;52.150;8.428;2024-03-23T06:51:43;7.90;99.90
4435;DHT22;46552;52.150;8.428;2024-03-23T06:54:10;7.90;99.90
4435;DHT22;46552;52.150;8.428;2024-03-23T06:56:37;7.90;99.90
4435;DHT22;46552;52.150;8.428;2024-03-23T06:59:05;7.80;99.90
4435;DHT22;46552;52.150;8.428;2024-03-23T07:01:32;7.90;99.90
4435;DHT22;46552;52.150;8.428;2024-03-23T07:03:59;8.00;99.90
4435;DHT22;46552;52.150;8.428;2024-03-23T07:06:26;8.00;99.90
4435;DHT22;46552;52.150;8.428;2024-03-23T07:08:53;8.00;99.90
4435;DHT22;46552;52.150;8.428;2024-03-23T07:11:20;8.10;99.90
4435;DHT22;46552;52.150;8.428;2024-03-23T07:13:49;8.10;99.90
4435;DHT22;46552;52.150;8.428;2024-03-23T07:16:17;8.20;99.90
4435;DHT22;46552;52.150;8.428;2024-03-23T07:18:44;8.40;99.90
4435;DHT22;46552;52.150;8.428;2024-03-23T07:21:11;8.50;99.90
4435;DHT22;46552;52.150;8.428;2024-03-23T07:23:37;8.70;99.90
4435;DHT22;46552;52.150;8.428;2024-03-23T07:26:07;8.90;99.90
4435;DHT22;46552;52.150;8.428;2024-03-23T07:28:34;9.00;99.90
4435;DHT22;46552;52.150;8.428;2024-03-23T07:31:03;9.20;99.90
4435;DHT22;46552;52.150;8.428;2024-03-23T07:33:33;9.30;99.90
4435;DHT22;46552;52.150;8.428;2024-03-23T07:36:00;9.40;99.90
4435;DHT22;46552;52.150;8.428;2024-03-23T07:38:28;9.40;99.90
4435;DHT22;46552;52.150;8.428;2024-03-23T07:41:05;9.60;99.90
4435;DHT22;46552;52.150;8.428;2024-03-23T07:43:32;9.70;99.90
4435;DHT22;46552;52.150;8.428;2024-03-23T07:45:59;9.70;99.90
4435;DHT22;46552;52.150;8.428;2024-03-23T07:48:26;9.60;99.90
4435;DHT22;46552;52.150;8.428;2024-03-23T07:51:00;9.70;99.90
4435;DHT22;46552;52.150;8.428;2024-03-23T07:53:26;9.70;99.90
4435;DHT22;46552;52.150;8.428;2024-03-23T07:55:57;9.80;99.90
4435;DHT22;46552;52.150;8.428;2024-03-23T07:58:24;9.90;99.90
4435;DHT22;46552;52.150;8.428;2024-03-23T08:00:52;10.10;99.90
4435;DHT22;46552;52.150;8.428;2024-03-23T08:03:18;10.20;99.90
4435;DHT22;46552;52.150;8.428;2024-03-23T08:05:46;10.30;99.90
4435;DHT22;46552;52.150;8.428;2024-03-23T08:08:15;10.40;99.90
4435;DHT22;46552;52.150;8.428;2024-03-23T08:10:48;10.60;99.90
4435;DHT22;46552;52.150;8.428;2024-03-23T08:13:16;10.70;99.90
4435;DHT22;46552;52.150;8.428;2024-03-23T08:15:43;10.90;99.90
4435;DHT22;46552;52.150;8.428;2024-03-23T08:18:11;11.10;99.90
4435;DHT22;46552;52.150;8.428;2024-03-23T08:20:37;11.10;99.90
4435;DHT22;46552;52.150;8.428;2024-03-23T08:23:05;11.10;99.90
4435;DHT22;46552;52.150;8.428;2024-03-23T08:25:33;11.30;99.90
4435;DHT22;46552;52.150;8.428;2024-03-23T08:28:01;11.50;99.90
4435;DHT22;46552;52.150;8.428;2024-03-23T08:30:28;11.90;99.90
4435;DHT22;46552;52.150;8.428;2024-03-23T08:32:56;11.90;99.90
4435;DHT22;46552;52.150;8.428;2024-03-23T08:35:23;11.90;99.90
4435;DHT22;46552;52.150;8.428;2024-03-23T08:37:50;12.10;99.90
4435;DHT22;46552;52.150;8.428;2024-03-23T08:40:16;12.30;99.90
4435;DHT22;46552;52.150;8.428;2024-03-23T08:42:45;12.60;99.90
4435;DHT22;46552;52.150;8.428;2024-03-23T08:45:12;13.00;99.90
4435;DHT22;46552;52.150;8.428;2024-03-23T08:47:40;13.30;99.90
4435;DHT22;46552;52.150;8.428;2024-03-23T08:50:08;13.30;99.90
4435;DHT22;46552;52.150;8.428;2024-03-23T08:52:35;13.10;99.90
4435;DHT22;46552;52.150;8.428;2024-03-23T08:55:01;12.90;99.90
4435;DHT22;46552;52.150;8.428;2024-03-23T08:57:30;12.90;99.90
4435;DHT22;46552;52.150;8.428;2024-03-23T08:59:59;12.90;99.90
4435;DHT22;46552;52.150;8.428;2024-03-23T09:02:27;12.90;99.90
4435;DHT22;46552;52.150;8.428;2024-03-23T09:04:53;13.00;99.90
4435;DHT22;46552;52.150;8.428;2024-03-23T09:07:20;13.10;99.90
4435;DHT22;46552;52.150;8.428;2024-03-23T09:09:46;13.20;99.90
4435;DHT22;46552;52.150;8.428;2024-03-23T09:12:14;13.50;99.90
4435;DHT22;46552;52.150;8.428;2024-03-23T09:14:40;13.70;99.90
4435;DHT22;46552;52.150;8.428;2024-03-23T09:17:09;13.90;99.90
4435;DHT22;46552;52.150;8.428;2024-03-23T09:19:36;14.00;99.90
4435;DHT22;46552;52.150;8.428;2024-03-23T09:22:03;14.10;99.90
4435;DHT22;46552;52.150;8.428;2024-03-23T09:24:30;13.80;99.90
4435;DHT22;46552;52.150;8.428;2024-03-23T09:26:57;13.20;99.90
4435;DHT22;46552;52.150;8.428;2024-03-23T09:29:24;12.70;99.90
4435;DHT22;46552;52.150;8.428;2024-03-23T09:31:52;12.40;99.90
4435;DHT22;46552;52.150;8.428;2024-03-23T09:34:19;12.00;99.90
4435;DHT22;46552;52.150;8.428;2024-03-23T09:36:50;11.70;99.90
4435;DHT22;46552;52.150;8.428;2024-03-23T09:39:17;11.30;99.90
4435;DHT22;46552;52.150;8.428;2024-03-23T09:41:45;11.10;99.90
4435;DHT22;46552;52.150;8.428;2024-03-23T09:44:11;10.80;99.90
4435;DHT22;46552;52.150;8.428;2024-03-23T09:46:39;10.60;99.90
4435;DHT22;46552;52.150;8.428;2024-03-23T09:49:07;10.40;99.90
4435;DHT22;46552;52.150;8.428;2024-03-23T09:51:37;10.30;99.90
4435;DHT22;46552;52.150;8.428;2024-03-23T09:54:03;10.20;99.90
4435;DHT22;46552;52.150;8.428;2024-03-23T09:56:30;10.30;99.90
4435;DHT22;46552;52.150;8.428;2024-03-23T09:59:01;10.30;99.90
4435;DHT22;46552;52.150;8.428;2024-03-23T10:01:30;10.80;99.90
4435;DHT22;46552;52.150;8.428;2024-03-23T10:03:56;11.40;99.90
4435;DHT22;46552;52.150;8.428;2024-03-23T10:06:24;12.10;99.90
4435;DHT22;46552;52.150;8.428;2024-03-23T10:08:53;12.30;99.90
4435;DHT22;46552;52.150;8.428;2024-03-23T10:11:21;12.30;99.90
4435;DHT22;46552;52.150;8.428;2024-03-23T10:13:47;12.10;99.90
4435;DHT22;46552;52.150;8.428;2024-03-23T10:16:25;12.00;99.90
4435;DHT22;46552;52.150;8.428;2024-03-23T10:18:52;11.80;99.90
4435;DHT22;46552;52.150;8.428;2024-03-23T10:21:19;11.50;99.90
4435;DHT22;46552;52.150;8.428;2024-03-23T10:23:45;11.20;99.90
4435;DHT22;46552;52.150;8.428;2024-03-23T10:26:19;11.10;99.90
4435;DHT22;46552;52.150;8.428;2024-03-23T10:28:57;10.80;99.90
4435;DHT22;46552;52.150;8.428;2024-03-23T10:31:26;10.50;99.90
4435;DHT22;46552;52.150;8.428;2024-03-23T10:33:54;10.40;99.90
4435;DHT22;46552;52.150;8.428;2024-03-23T10:36:23;10.60;99.90
4435;DHT22;46552;52.150;8.428;2024-03-23T10:38:51;10.80;99.90
4435;DHT22;46552;52.150;8.428;2024-03-23T10:41:20;11.10;99.90
4435;DHT22;46552;52.150;8.428;2024-03-23T10:43:47;11.20;99.90
4435;DHT22;46552;52.150;8.428;2024-03-23T10:46:15;11.40;99.90
4435;DHT22;46552;52.150;8.428;2024-03-23T10:48:44;11.70;99.90
4435;DHT22;46552;52.150;8.428;2024-03-23T10:51:11;11.60;99.90
4435;DHT22;46552;52.150;8.428;2024-03-23T10:53:38;11.60;99.90
4435;DHT22;46552;52.150;8.428;2024-03-23T10:56:06;11.40;99.90
4435;DHT22;46552;52.150;8.428;2024-03-23T10:58:38;11.30;99.90
4435;DHT22;46552;52.150;8.428;2024-03-23T11:01:06;11.30;99.90
4435;DHT22;46552;52.150;8.428;2024-03-23T11:03:33;11.20;99.90
4435;DHT22;46552;52.150;8.428;2024-03-23T11:06:02;10.90;99.90
4435;DHT22;46552;52.150;8.428;2024-03-23T11:08:36;10.40;99.90
4435;DHT22;46552;52.150;8.428;2024-03-23T11:11:14;10.00;99.90
4435;DHT22;46552;52.150;8.428;2024-03-23T11:13:45;9.60;99.90
4435;DHT22;46552;52.150;8.428;2024-03-23T11:16:14;9.50;99.90
4435;DHT22;46552;52.150;8.428;2024-03-23T11:18:41;9.50;99.90
4435;DHT22;46552;52.150;8.428;2024-03-23T11:21:09;9.50;99.90
4435;DHT22;46552;52.150;8.428;2024-03-23T11:23:37;9.50;99.90
4435;DHT22;46552;52.150;8.428;2024-03-23T11:26:07;9.30;99.90
4435;DHT22;46552;52.150;8.428;2024-03-23T11:28:34;9.30;99.90
4435;DHT22;46552;52.150;8.428;2024-03-23T11:31:09;9.30;99.90
4435;DHT22;46552;52.150;8.428;2024-03-23T11:33:36;9.40;99.90
4435;DHT22;46552;52.150;8.428;2024-03-23T11:36:04;9.90;99.90
4435;DHT22;46552;52.150;8.428;2024-03-23T11:38:36;10.60;99.90
4435;DHT22;46552;52.150;8.428;2024-03-23T11:41:03;11.20;99.90
4435;DHT22;46552;52.150;8.428;2024-03-23T11:43:30;11.90;99.90
4435;DHT22;46552;52.150;8.428;2024-03-23T11:45:58;12.50;99.90
4435;DHT22;46552;52.150;8.428;2024-03-23T11:48:27;13.00;99.90
4435;DHT22;46552;52.150;8.428;2024-03-23T11:50:56;13.40;99.90
4435;DHT22;46552;52.150;8.428;2024-03-23T11:53:24;13.80;99.90
4435;DHT22;46552;52.150;8.428;2024-03-23T11:55:55;14.10;99.90
4435;DHT22;46552;52.150;8.428;2024-03-23T11:58:22;14.30;99.90
4435;DHT22;46552;52.150;8.428;2024-03-23T12:00:51;14.30;99.90
4435;DHT22;46552;52.150;8.428;2024-03-23T12:03:18;14.10;99.90
4435;DHT22;46552;52.150;8.428;2024-03-23T12:05:50;13.70;99.90
4435;DHT22;46552;52.150;8.428;2024-03-23T12:08:20;13.30;99.90
4435;DHT22;46552;52.150;8.428;2024-03-23T12:10:50;12.90;99.90
4435;DHT22;46552;52.150;8.428;2024-03-23T12:13:20;12.60;99.90
4435;DHT22;46552;52.150;8.428;2024-03-23T12:15:49;12.30;99.90
4435;DHT22;46552;52.150;8.428;2024-03-23T12:18:15;12.00;99.90
4435;DHT22;46552;52.150;8.428;2024-03-23T12:20:43;11.70;99.90
4435;DHT22;46552;52.150;8.428;2024-03-23T12:23:12;11.60;99.90
4435;DHT22;46552;52.150;8.428;2024-03-23T12:25:39;11.40;99.90
4435;DHT22;46552;52.150;8.428;2024-03-23T12:28:06;11.30;99.90
4435;DHT22;46552;52.150;8.428;2024-03-23T12:30:37;11.20;99.90
4435;DHT22;46552;52.150;8.428;2024-03-23T12:33:06;11.20;99.90
4435;DHT22;46552;52.150;8.428;2024-03-23T12:35:33;11.20;99.90
4435;DHT22;46552;52.150;8.428;2024-03-23T12:38:00;11.60;99.90
4435;DHT22;46552;52.150;8.428;2024-03-23T12:40:28;12.00;99.90
4435;DHT22;46552;52.150;8.428;2024-03-23T12:42:55;12.50;99.90
4435;DHT22;46552;52.150;8.428;2024-03-23T12:45:23;12.90;99.90
4435;DHT22;46552;52.150;8.428;2024-03-23T12:47:50;13.20;99.90
4435;DHT22;46552;52.150;8.428;2024-03-23T12:50:18;13.30;99.90
4435;DHT22;46552;52.150;8.428;2024-03-23T12:52:44;13.30;99.90
4435;DHT22;46552;52.150;8.428;2024-03-23T12:55:11;13.30;99.90
4435;DHT22;46552;52.150;8.428;2024-03-23T12:57:40;13.20;99.90
4435;DHT22;46552;52.150;8.428;2024-03-23T13:00:08;13.00;99.90
4435;DHT22;46552;52.150;8.428;2024-03-23T13:02:37;12.90;99.90
4435;DHT22;46552;52.150;8.428;2024-03-23T13:05:05;12.60;99.90
4435;DHT22;46552;52.150;8.428;2024-03-23T13:07:33;11.80;99.70
4435;DHT22;46552;52.150;8.428;2024-03-23T13:10:01;11.10;99.90
4435;DHT22;46552;52.150;8.428;2024-03-23T13:12:28;10.30;99.90
4435;DHT22;46552;52.150;8.428;2024-03-23T13:14:56;9.60;99.90
4435;DHT22;46552;52.150;8.428;2024-03-23T13:17:23;9.20;99.90
4435;DHT22;46552;52.150;8.428;2024-03-23T13:19:50;8.90;99.90
4435;DHT22;46552;52.150;8.428;2024-03-23T13:22:16;8.70;99.90
4435;DHT22;46552;52.150;8.428;2024-03-23T13:24:44;8.60;99.90
4435;DHT22;46552;52.150;8.428;2024-03-23T13:27:10;8.60;99.90
4435;DHT22;46552;52.150;8.428;2024-03-23T13:29:37;8.70;99.90
4435;DHT22;46552;52.150;8.428;2024-03-23T13:32:06;9.10;99.90
4435;DHT22;46552;52.150;8.428;2024-03-23T13:34:34;9.50;99.90
4435;DHT22;46552;52.150;8.428;2024-03-23T13:37:01;9.90;99.90
4435;DHT22;46552;52.150;8.428;2024-03-23T13:39:29;10.30;99.90
4435;DHT22;46552;52.150;8.428;2024-03-23T13:41:56;10.60;99.90
4435;DHT22;46552;52.150;8.428;2024-03-23T13:44:23;10.70;99.90
4435;DHT22;46552;52.150;8.428;2024-03-23T13:46:50;10.80;99.90
4435;DHT22;46552;52.150;8.428;2024-03-23T13:49:28;11.00;99.90
4435;DHT22;46552;52.150;8.428;2024-03-23T13:51:55;11.20;99.90
4435;DHT22;46552;52.150;8.428;2024-03-23T13:54:24;11.40;99.90
4435;DHT22;46552;52.150;8.428;2024-03-23T13:56:52;11.60;99.90
4435;DHT22;46552;52.150;8.428;2024-03-23T13:59:20;11.70;99.90
4435;DHT22;46552;52.150;8.428;2024-03-23T14:01:47;11.70;99.90
4435;DHT22;46552;52.150;8.428;2024-03-23T14:04:14;11.60;99.90
4435;DHT22;46552;52.150;8.428;2024-03-23T14:06:43;11.50;99.90
4435;DHT22;46552;52.150;8.428;2024-03-23T14:09:11;11.40;99.90
4435;DHT22;46552;52.150;8.428;2024-03-23T14:11:38;11.10;99.90
4435;DHT22;46552;52.150;8.428;2024-03-23T14:14:06;10.70;99.90
4435;DHT22;46552;52.150;8.428;2024-03-23T14:16:33;10.50;99.90
4435;DHT22;46552;52.150;8.428;2024-03-23T14:19:00;10.40;99.90
4435;DHT22;46552;52.150;8.428;2024-03-23T14:21:27;10.20;99.90
4435;DHT22;46552;52.150;8.428;2024-03-23T14:23:56;10.00;99.90
4435;DHT22;46552;52.150;8.428;2024-03-23T14:26:23;9.90;99.90
4435;DHT22;46552;52.150;8.428;2024-03-23T14:28:50;9.90;99.90
4435;DHT22;46552;52.150;8.428;2024-03-23T14:31:17;9.90;99.90
4435;DHT22;46552;52.150;8.428;2024-03-23T14:33:44;9.80;99.90
4435;DHT22;46552;52.150;8.428;2024-03-23T14:36:12;9.80;99.90
4435;DHT22;46552;52.150;8.428;2024-03-23T14:38:39;9.80;99.90
4435;DHT22;46552;52.150;8.428;2024-03-23T14:41:07;10.00;99.90
4435;DHT22;46552;52.150;8.428;2024-03-23T14:43:35;10.30;99.90
4435;DHT22;46552;52.150;8.428;2024-03-23T14:46:08;10.50;99.90
4435;DHT22;46552;52.150;8.428;2024-03-23T14:48:36;10.60;99.90
4435;DHT22;46552;52.150;8.428;2024-03-23T14:51:03;10.60;99.90
4435;DHT22;46552;52.150;8.428;2024-03-23T14:53:32;10.60;99.90
4435;DHT22;46552;52.150;8.428;2024-03-23T14:55:59;10.50;99.90
4435;DHT22;46552;52.150;8.428;2024-03-23T14:58:29;10.20;99.90
4435;DHT22;46552;52.150;8.428;2024-03-23T15:01:00;10.10;99.90
4435;DHT22;46552;52.150;8.428;2024-03-23T15:03:28;10.10;99.90
4435;DHT22;46552;52.150;8.428;2024-03-23T15:05:55;10.00;99.90
4435;DHT22;46552;52.150;8.428;2024-03-23T15:08:22;10.00;99.90
4435;DHT22;46552;52.150;8.428;2024-03-23T15:10:48;9.90;99.90
4435;DHT22;46552;52.150;8.428;2024-03-23T15:13:16;9.90;99.90
4435;DHT22;46552;52.150;8.428;2024-03-23T15:15:45;9.80;99.90
4435;DHT22;46552;52.150;8.428;2024-03-23T15:18:14;9.70;99.90
4435;DHT22;46552;52.150;8.428;2024-03-23T15:20:40;9.70;99.90
4435;DHT22;46552;52.150;8.428;2024-03-23T15:23:08;9.70;99.90
4435;DHT22;46552;52.150;8.428;2024-03-23T15:25:35;9.90;99.90
4435;DHT22;46552;52.150;8.428;2024-03-23T15:28:03;10.10;99.90
4435;DHT22;46552;52.150;8.428;2024-03-23T15:30:29;10.20;99.90
4435;DHT22;46552;52.150;8.428;2024-03-23T15:32:58;10.10;99.90
4435;DHT22;46552;52.150;8.428;2024-03-23T15:35:24;10.10;99.90
4435;DHT22;46552;52.150;8.428;2024-03-23T15:37:51;9.90;99.90
4435;DHT22;46552;52.150;8.428;2024-03-23T15:40:17;9.80;99.90
4435;DHT22;46552;52.150;8.428;2024-03-23T15:42:44;9.70;99.90
4435;DHT22;46552;52.150;8.428;2024-03-23T15:45:10;9.60;99.90
4435;DHT22;46552;52.150;8.428;2024-03-23T15:47:38;9.60;99.90
4435;DHT22;46552;52.150;8.428;2024-03-23T15:50:07;9.60;99.90
4435;DHT22;46552;52.150;8.428;2024-03-23T15:52:36;9.60;99.90
4435;DHT22;46552;52.150;8.428;2024-03-23T15:55:03;9.70;99.90
4435;DHT22;46552;52.150;8.428;2024-03-23T15:57:33;9.70;99.90
4435;DHT22;46552;52.150;8.428;2024-03-23T16:00:00;9.70;99.90
4435;DHT22;46552;52.150;8.428;2024-03-23T16:02:27;9.80;99.90
4435;DHT22;46552;52.150;8.428;2024-03-23T16:04:54;9.90;99.90
4435;DHT22;46552;52.150;8.428;2024-03-23T16:07:24;9.90;99.90
4435;DHT22;46552;52.150;8.428;2024-03-23T16:09:51;9.90;99.90
4435;DHT22;46552;52.150;8.428;2024-03-23T16:12:18;9.90;99.90
4435;DHT22;46552;52.150;8.428;2024-03-23T16:14:44;9.80;99.90
4435;DHT22;46552;52.150;8.428;2024-03-23T16:17:12;9.70;99.90
4435;DHT22;46552;52.150;8.428;2024-03-23T16:19:38;9.70;99.90
4435;DHT22;46552;52.150;8.428;2024-03-23T16:22:05;9.60;99.90
4435;DHT22;46552;52.150;8.428;2024-03-23T16:24:34;9.50;99.90
4435;DHT22;46552;52.150;8.428;2024-03-23T16:27:01;9.30;99.90
4435;DHT22;46552;52.150;8.428;2024-03-23T16:29:29;9.20;99.90
4435;DHT22;46552;52.150;8.428;2024-03-23T16:31:56;9.10;99.90
4435;DHT22;46552;52.150;8.428;2024-03-23T16:34:23;9.00;99.90
4435;DHT22;46552;52.150;8.428;2024-03-23T16:36:50;8.90;99.90
4435;DHT22;46552;52.150;8.428;2024-03-23T16:39:18;8.80;99.90
4435;DHT22;46552;52.150;8.428;2024-03-23T16:41:47;8.70;99.90
4435;DHT22;46552;52.150;8.428;2024-03-23T16:44:13;8.50;99.90
4435;DHT22;46552;52.150;8.428;2024-03-23T16:46:40;8.20;99.90
4435;DHT22;46552;52.150;8.428;2024-03-23T16:49:09;8.00;99.90
4435;DHT22;46552;52.150;8.428;2024-03-23T16:51:36;7.90;99.90